sensor_id;sensor_type;location;lat;lon;timestamp;temperature;humidity
70867;HTU21D;58487;53.474;49.470;2023-03-08T00:01:24;-4.99;118.99
70867;HTU21D;58487;53.474;49.470;2023-03-08T00:03:53;-5.00;118.99
70867;HTU21D;58487;53.474;49.470;2023-03-08T00:06:20;-5.01;118.99
70867;HTU21D;58487;53.474;49.470;2023-03-08T00:08:46;-5.28;118.99
70867;HTU21D;58487;53.474;49.470;2023-03-08T00:11:13;-5.11;118.99
70867;HTU21D;58487;53.474;49.470;2023-03-08T00:13:40;-5.00;118.99
70867;HTU21D;58487;53.474;49.470;2023-03-08T00:16:08;-5.17;118.99
70867;HTU21D;58487;53.474;49.470;2023-03-08T00:18:35;-5.02;118.99
70867;HTU21D;58487;53.474;49.470;2023-03-08T00:21:20;-5.15;118.99
70867;HTU21D;58487;53.474;49.470;2023-03-08T00:23:46;-5.11;118.99
70867;HTU21D;58487;53.474;49.470;2023-03-08T00:26:13;-5.07;118.99
70867;HTU21D;58487;53.474;49.470;2023-03-08T00:28:40;-5.20;118.99
70867;HTU21D;58487;53.474;49.470;2023-03-08T00:31:09;-5.32;118.99
70867;HTU21D;58487;53.474;49.470;2023-03-08T00:33:36;-5.37;118.99
70867;HTU21D;58487;53.474;49.470;2023-03-08T00:36:05;-5.46;118.99
70867;HTU21D;58487;53.474;49.470;2023-03-08T00:38:35;-5.25;118.99
70867;HTU21D;58487;53.474;49.470;2023-03-08T00:41:02;-5.25;118.99
70867;HTU21D;58487;53.474;49.470;2023-03-08T00:43:29;-5.41;118.99
70867;HTU21D;58487;53.474;49.470;2023-03-08T00:45:56;-5.16;118.99
70867;HTU21D;58487;53.474;49.470;2023-03-08T00:48:23;-4.90;118.99
70867;HTU21D;58487;53.474;49.470;2023-03-08T00:50:49;-5.05;118.99
70867;HTU21D;58487;53.474;49.470;2023-03-08T00:53:15;-5.01;118.99
70867;HTU21D;58487;53.474;49.470;2023-03-08T00:55:50;-4.91;118.99
70867;HTU21D;58487;53.474;49.470;2023-03-08T00:58:17;-4.70;118.99
70867;HTU21D;58487;53.474;49.470;2023-03-08T01:00:43;-4.73;118.99
70867;HTU21D;58487;53.474;49.470;2023-03-08T01:03:09;-4.70;118.99
70867;HTU21D;58487;53.474;49.470;2023-03-08T01:05:44;-4.68;118.99
70867;HTU21D;58487;53.474;49.470;2023-03-08T01:08:11;-4.59;118.99
70867;HTU21D;58487;53.474;49.470;2023-03-08T01:10:37;-4.61;118.99
70867;HTU21D;58487;53.474;49.470;2023-03-08T01:13:04;-5.24;118.99
70867;HTU21D;58487;53.474;49.470;2023-03-08T01:15:34;-4.90;118.99
70867;HTU21D;58487;53.474;49.470;2023-03-08T01:18:01;-4.63;118.99
70867;HTU21D;58487;53.474;49.470;2023-03-08T01:20:27;-4.56;118.99
70867;HTU21D;58487;53.474;49.470;2023-03-08T01:22:53;-4.83;118.99
70867;HTU21D;58487;53.474;49.470;2023-03-08T01:25:19;-4.57;118.99
70867;HTU21D;58487;53.474;49.470;2023-03-08T01:27:45;-4.80;118.99
70867;HTU21D;58487;53.474;49.470;2023-03-08T01:30:11;-4.80;118.99
70867;HTU21D;58487;53.474;49.470;2023-03-08T01:32:37;-4.74;118.99
70867;HTU21D;58487;53.474;49.470;2023-03-08T01:35:04;-4.61;118.99
70867;HTU21D;58487;53.474;49.470;2023-03-08T01:37:31;-4.83;118.99
70867;HTU21D;58487;53.474;49.470;2023-03-08T01:39:57;-4.28;118.99
70867;HTU21D;58487;53.474;49.470;2023-03-08T01:42:23;-4.17;118.99
70867;HTU21D;58487;53.474;49.470;2023-03-08T01:44:57;-3.95;118.99
70867;HTU21D;58487;53.474;49.470;2023-03-08T01:47:28;-4.09;118.99
70867;HTU21D;58487;53.474;49.470;2023-03-08T01:50:02;-4.05;118.99
70867;HTU21D;58487;53.474;49.470;2023-03-08T01:52:38;-4.00;118.99
70867;HTU21D;58487;53.474;49.470;2023-03-08T01:55:08;-4.34;118.99
70867;HTU21D;58487;53.474;49.470;2023-03-08T01:57:48;-4.27;118.99
70867;HTU21D;58487;53.474;49.470;2023-03-08T02:00:21;-4.34;118.99
70867;HTU21D;58487;53.474;49.470;2023-03-08T02:02:58;-4.34;118.99
70867;HTU21D;58487;53.474;49.470;2023-03-08T02:05:26;-4.26;118.99
70867;HTU21D;58487;53.474;49.470;2023-03-08T02:07:52;-3.75;118.99
70867;HTU21D;58487;53.474;49.470;2023-03-08T02:10:19;-3.83;118.99
70867;HTU21D;58487;53.474;49.470;2023-03-08T02:12:46;-3.83;118.99
70867;HTU21D;58487;53.474;49.470;2023-03-08T02:15:16;-3.81;118.99
70867;HTU21D;58487;53.474;49.470;2023-03-08T02:17:43;-4.01;118.99
70867;HTU21D;58487;53.474;49.470;2023-03-08T02:20:11;-3.84;118.99
70867;HTU21D;58487;53.474;49.470;2023-03-08T02:22:43;-3.58;118.99
70867;HTU21D;58487;53.474;49.470;2023-03-08T02:27:39;-3.52;118.99
70867;HTU21D;58487;53.474;49.470;2023-03-08T02:30:06;-3.32;118.99
70867;HTU21D;58487;53.474;49.470;2023-03-08T02:32:32;-3.45;118.99
70867;HTU21D;58487;53.474;49.470;2023-03-08T02:34:59;-3.20;118.99
70867;HTU21D;58487;53.474;49.470;2023-03-08T02:37:25;-3.18;118.99
70867;HTU21D;58487;53.474;49.470;2023-03-08T02:39:51;-3.16;118.99
70867;HTU21D;58487;53.474;49.470;2023-03-08T02:42:17;-3.00;118.99
70867;HTU21D;58487;53.474;49.470;2023-03-08T02:44:44;-3.41;118.99
70867;HTU21D;58487;53.474;49.470;2023-03-08T02:47:10;-3.34;118.99
70867;HTU21D;58487;53.474;49.470;2023-03-08T02:49:36;-3.53;118.99
70867;HTU21D;58487;53.474;49.470;2023-03-08T02:52:02;-3.64;118.99
70867;HTU21D;58487;53.474;49.470;2023-03-08T02:54:28;-3.38;118.99
70867;HTU21D;58487;53.474;49.470;2023-03-08T02:56:54;-3.52;118.99
70867;HTU21D;58487;53.474;49.470;2023-03-08T02:59:20;-3.68;118.99
70867;HTU21D;58487;53.474;49.470;2023-03-08T03:01:46;-3.37;118.99
70867;HTU21D;58487;53.474;49.470;2023-03-08T03:04:16;-3.38;118.99
70867;HTU21D;58487;53.474;49.470;2023-03-08T03:06:42;-3.52;118.99
70867;HTU21D;58487;53.474;49.470;2023-03-08T03:09:10;-3.55;118.99
70867;HTU21D;58487;53.474;49.470;2023-03-08T03:11:38;-3.22;118.99
70867;HTU21D;58487;53.474;49.470;2023-03-08T03:14:05;-3.34;118.99
70867;HTU21D;58487;53.474;49.470;2023-03-08T03:16:31;-3.33;118.99
70867;HTU21D;58487;53.474;49.470;2023-03-08T03:18:57;-3.36;118.99
70867;HTU21D;58487;53.474;49.470;2023-03-08T03:21:23;-3.23;118.99
70867;HTU21D;58487;53.474;49.470;2023-03-08T03:23:50;-3.12;118.99
70867;HTU21D;58487;53.474;49.470;2023-03-08T03:26:19;-3.15;118.99
70867;HTU21D;58487;53.474;49.470;2023-03-08T03:28:46;-3.08;118.99
70867;HTU21D;58487;53.474;49.470;2023-03-08T03:31:16;-2.97;118.99
70867;HTU21D;58487;53.474;49.470;2023-03-08T03:33:43;-3.02;118.99
70867;HTU21D;58487;53.474;49.470;2023-03-08T03:36:12;-3.01;118.99
70867;HTU21D;58487;53.474;49.470;2023-03-08T03:38:39;-3.18;118.99
70867;HTU21D;58487;53.474;49.470;2023-03-08T03:41:11;-3.04;118.99
70867;HTU21D;58487;53.474;49.470;2023-03-08T03:43:37;-3.03;118.99
70867;HTU21D;58487;53.474;49.470;2023-03-08T03:46:06;-3.01;118.99
70867;HTU21D;58487;53.474;49.470;2023-03-08T03:48:36;-3.08;118.99
70867;HTU21D;58487;53.474;49.470;2023-03-08T03:51:25;-3.01;118.99
70867;HTU21D;58487;53.474;49.470;2023-03-08T03:53:51;-3.30;118.99
70867;HTU21D;58487;53.474;49.470;2023-03-08T03:56:22;-2.90;118.99
70867;HTU21D;58487;53.474;49.470;2023-03-08T03:58:49;-2.96;118.99
70867;HTU21D;58487;53.474;49.470;2023-03-08T04:01:19;-2.78;118.99
70867;HTU21D;58487;53.474;49.470;2023-03-08T04:03:47;-2.83;118.99
70867;HTU21D;58487;53.474;49.470;2023-03-08T04:06:23;-2.89;118.99
70867;HTU21D;58487;53.474;49.470;2023-03-08T04:08:54;-2.60;118.99
70867;HTU21D;58487;53.474;49.470;2023-03-08T04:11:24;-2.86;118.99
70867;HTU21D;58487;53.474;49.470;2023-03-08T04:13:50;-2.83;118.99
70867;HTU21D;58487;53.474;49.470;2023-03-08T04:16:22;-2.79;118.99
70867;HTU21D;58487;53.474;49.470;2023-03-08T04:18:52;-2.75;118.99
70867;HTU21D;58487;53.474;49.470;2023-03-08T04:21:20;-2.67;118.99
70867;HTU21D;58487;53.474;49.470;2023-03-08T04:23:47;-2.52;118.99
70867;HTU21D;58487;53.474;49.470;2023-03-08T04:26:13;-2.61;118.99
70867;HTU21D;58487;53.474;49.470;2023-03-08T04:28:41;-2.53;118.99
70867;HTU21D;58487;53.474;49.470;2023-03-08T04:31:18;-2.33;118.99
70867;HTU21D;58487;53.474;49.470;2023-03-08T04:33:45;-2.32;118.99
70867;HTU21D;58487;53.474;49.470;2023-03-08T04:36:12;-2.21;118.99
70867;HTU21D;58487;53.474;49.470;2023-03-08T04:38:39;-2.15;118.99
70867;HTU21D;58487;53.474;49.470;2023-03-08T04:41:05;-2.02;118.99
70867;HTU21D;58487;53.474;49.470;2023-03-08T04:43:52;-2.09;118.99
70867;HTU21D;58487;53.474;49.470;2023-03-08T04:46:21;-1.95;118.99
70867;HTU21D;58487;53.474;49.470;2023-03-08T04:48:48;-1.90;118.99
70867;HTU21D;58487;53.474;49.470;2023-03-08T04:51:17;-1.91;118.99
70867;HTU21D;58487;53.474;49.470;2023-03-08T04:53:44;-1.97;118.99
70867;HTU21D;58487;53.474;49.470;2023-03-08T04:56:11;-1.36;118.99
70867;HTU21D;58487;53.474;49.470;2023-03-08T04:58:38;-1.44;118.99
70867;HTU21D;58487;53.474;49.470;2023-03-08T05:01:22;-1.36;118.99
70867;HTU21D;58487;53.474;49.470;2023-03-08T05:03:50;-1.19;118.99
70867;HTU21D;58487;53.474;49.470;2023-03-08T05:06:17;-1.33;118.99
70867;HTU21D;58487;53.474;49.470;2023-03-08T05:08:43;-1.26;118.99
70867;HTU21D;58487;53.474;49.470;2023-03-08T05:11:22;-1.13;118.99
70867;HTU21D;58487;53.474;49.470;2023-03-08T05:13:49;-1.26;118.99
70867;HTU21D;58487;53.474;49.470;2023-03-08T05:16:15;-1.21;118.99
70867;HTU21D;58487;53.474;49.470;2023-03-08T05:18:41;-1.31;118.99
70867;HTU21D;58487;53.474;49.470;2023-03-08T05:21:13;-1.06;118.99
70867;HTU21D;58487;53.474;49.470;2023-03-08T05:23:40;-0.93;118.99
70867;HTU21D;58487;53.474;49.470;2023-03-08T05:26:07;-0.89;118.99
70867;HTU21D;58487;53.474;49.470;2023-03-08T05:28:35;-0.75;118.99
70867;HTU21D;58487;53.474;49.470;2023-03-08T05:31:06;-0.85;118.99
70867;HTU21D;58487;53.474;49.470;2023-03-08T05:33:33;-0.97;118.99
70867;HTU21D;58487;53.474;49.470;2023-03-08T05:36:00;-0.64;118.99
70867;HTU21D;58487;53.474;49.470;2023-03-08T05:38:26;-0.71;118.99
70867;HTU21D;58487;53.474;49.470;2023-03-08T05:40:53;-0.56;118.99
70867;HTU21D;58487;53.474;49.470;2023-03-08T05:43:20;-0.32;118.99
70867;HTU21D;58487;53.474;49.470;2023-03-08T05:45:57;-0.22;118.99
70867;HTU21D;58487;53.474;49.470;2023-03-08T05:48:25;-0.37;118.99
70867;HTU21D;58487;53.474;49.470;2023-03-08T05:50:51;-0.38;118.99
70867;HTU21D;58487;53.474;49.470;2023-03-08T05:53:17;-0.07;118.99
70867;HTU21D;58487;53.474;49.470;2023-03-08T05:55:43;0.15;118.99
70867;HTU21D;58487;53.474;49.470;2023-03-08T05:58:09;0.24;118.99
70867;HTU21D;58487;53.474;49.470;2023-03-08T06:00:35;0.31;118.99
70867;HTU21D;58487;53.474;49.470;2023-03-08T06:03:02;0.32;118.99
70867;HTU21D;58487;53.474;49.470;2023-03-08T06:05:31;0.46;118.99
70867;HTU21D;58487;53.474;49.470;2023-03-08T06:07:58;0.53;118.99
70867;HTU21D;58487;53.474;49.470;2023-03-08T06:10:24;0.37;118.99
70867;HTU21D;58487;53.474;49.470;2023-03-08T06:12:50;0.13;118.99
70867;HTU21D;58487;53.474;49.470;2023-03-08T06:15:17;0.33;118.99
70867;HTU21D;58487;53.474;49.470;2023-03-08T06:17:43;0.25;118.99
70867;HTU21D;58487;53.474;49.470;2023-03-08T06:20:09;0.45;118.99
70867;HTU21D;58487;53.474;49.470;2023-03-08T06:22:35;0.40;118.99
70867;HTU21D;58487;53.474;49.470;2023-03-08T06:25:02;0.35;118.99
70867;HTU21D;58487;53.474;49.470;2023-03-08T06:27:28;0.52;118.99
70867;HTU21D;58487;53.474;49.470;2023-03-08T06:29:54;0.68;118.99
70867;HTU21D;58487;53.474;49.470;2023-03-08T06:32:20;0.59;118.99
70867;HTU21D;58487;53.474;49.470;2023-03-08T06:34:46;0.48;118.99
70867;HTU21D;58487;53.474;49.470;2023-03-08T06:37:13;0.48;118.99
70867;HTU21D;58487;53.474;49.470;2023-03-08T06:39:39;0.48;118.99
70867;HTU21D;58487;53.474;49.470;2023-03-08T06:42:05;0.53;118.99
70867;HTU21D;58487;53.474;49.470;2023-03-08T06:44:32;0.48;118.99
70867;HTU21D;58487;53.474;49.470;2023-03-08T06:46:58;0.15;118.99
70867;HTU21D;58487;53.474;49.470;2023-03-08T06:49:24;-0.05;118.99
70867;HTU21D;58487;53.474;49.470;2023-03-08T06:51:50;-0.61;118.99
70867;HTU21D;58487;53.474;49.470;2023-03-08T06:54:16;-0.55;118.99
70867;HTU21D;58487;53.474;49.470;2023-03-08T06:56:44;-0.49;118.99
70867;HTU21D;58487;53.474;49.470;2023-03-08T06:59:11;-0.55;118.99
70867;HTU21D;58487;53.474;49.470;2023-03-08T07:01:38;-0.64;118.99
70867;HTU21D;58487;53.474;49.470;2023-03-08T07:04:04;-0.60;118.99
70867;HTU21D;58487;53.474;49.470;2023-03-08T07:06:30;-0.15;118.99
70867;HTU21D;58487;53.474;49.470;2023-03-08T07:08:57;-0.09;118.99
70867;HTU21D;58487;53.474;49.470;2023-03-08T07:11:24;-0.00;118.99
70867;HTU21D;58487;53.474;49.470;2023-03-08T07:13:51;0.29;118.99
70867;HTU21D;58487;53.474;49.470;2023-03-08T07:16:17;0.27;118.99
70867;HTU21D;58487;53.474;49.470;2023-03-08T07:18:44;0.25;118.99
70867;HTU21D;58487;53.474;49.470;2023-03-08T07:21:13;0.30;118.99
70867;HTU21D;58487;53.474;49.470;2023-03-08T07:23:39;0.59;118.99
70867;HTU21D;58487;53.474;49.470;2023-03-08T07:26:09;0.59;118.99
70867;HTU21D;58487;53.474;49.470;2023-03-08T07:28:35;0.76;118.99
70867;HTU21D;58487;53.474;49.470;2023-03-08T07:31:02;0.83;118.99
70867;HTU21D;58487;53.474;49.470;2023-03-08T07:33:28;0.83;118.99
70867;HTU21D;58487;53.474;49.470;2023-03-08T07:35:54;1.03;118.99
70867;HTU21D;58487;53.474;49.470;2023-03-08T07:38:20;1.16;118.99
70867;HTU21D;58487;53.474;49.470;2023-03-08T07:40:53;0.51;118.99
70867;HTU21D;58487;53.474;49.470;2023-03-08T07:43:19;1.04;118.99
70867;HTU21D;58487;53.474;49.470;2023-03-08T07:45:46;1.10;118.99
70867;HTU21D;58487;53.474;49.470;2023-03-08T07:48:12;1.23;118.99
70867;HTU21D;58487;53.474;49.470;2023-03-08T07:50:38;1.09;118.99
70867;HTU21D;58487;53.474;49.470;2023-03-08T07:53:05;1.33;118.99
70867;HTU21D;58487;53.474;49.470;2023-03-08T07:55:33;1.23;118.99
70867;HTU21D;58487;53.474;49.470;2023-03-08T07:57:59;1.31;118.99
70867;HTU21D;58487;53.474;49.470;2023-03-08T08:00:26;1.40;118.99
70867;HTU21D;58487;53.474;49.470;2023-03-08T08:02:52;1.49;118.99
70867;HTU21D;58487;53.474;49.470;2023-03-08T08:05:19;1.50;118.99
70867;HTU21D;58487;53.474;49.470;2023-03-08T08:07:54;1.46;118.99
70867;HTU21D;58487;53.474;49.470;2023-03-08T08:10:20;1.54;118.99
70867;HTU21D;58487;53.474;49.470;2023-03-08T08:12:46;1.76;118.99
70867;HTU21D;58487;53.474;49.470;2023-03-08T08:15:13;1.66;118.99
70867;HTU21D;58487;53.474;49.470;2023-03-08T08:17:41;1.61;118.99
70867;HTU21D;58487;53.474;49.470;2023-03-08T08:20:08;1.81;118.99
70867;HTU21D;58487;53.474;49.470;2023-03-08T08:22:35;1.79;118.99
70867;HTU21D;58487;53.474;49.470;2023-03-08T08:25:06;1.82;118.99
70867;HTU21D;58487;53.474;49.470;2023-03-08T08:27:32;1.69;118.99
70867;HTU21D;58487;53.474;49.470;2023-03-08T08:29:59;1.87;118.99
70867;HTU21D;58487;53.474;49.470;2023-03-08T08:32:25;1.92;118.99
70867;HTU21D;58487;53.474;49.470;2023-03-08T08:34:51;1.81;118.99
70867;HTU21D;58487;53.474;49.470;2023-03-08T08:37:18;1.79;118.99
70867;HTU21D;58487;53.474;49.470;2023-03-08T08:39:44;1.70;118.99
70867;HTU21D;58487;53.474;49.470;2023-03-08T08:42:10;1.79;118.99
70867;HTU21D;58487;53.474;49.470;2023-03-08T08:44:36;1.80;118.99
70867;HTU21D;58487;53.474;49.470;2023-03-08T08:47:03;1.83;118.99
70867;HTU21D;58487;53.474;49.470;2023-03-08T08:49:29;1.87;118.99
70867;HTU21D;58487;53.474;49.470;2023-03-08T08:51:55;1.71;118.99
70867;HTU21D;58487;53.474;49.470;2023-03-08T08:54:21;1.69;118.99
70867;HTU21D;58487;53.474;49.470;2023-03-08T08:56:47;1.63;118.99
70867;HTU21D;58487;53.474;49.470;2023-03-08T08:59:13;1.71;118.99
70867;HTU21D;58487;53.474;49.470;2023-03-08T09:01:41;1.76;118.99
70867;HTU21D;58487;53.474;49.470;2023-03-08T09:04:10;1.68;118.99
70867;HTU21D;58487;53.474;49.470;2023-03-08T09:06:36;1.69;118.99
70867;HTU21D;58487;53.474;49.470;2023-03-08T09:09:03;1.75;118.99
70867;HTU21D;58487;53.474;49.470;2023-03-08T09:11:31;1.63;118.99
70867;HTU21D;58487;53.474;49.470;2023-03-08T09:13:57;1.53;118.99
70867;HTU21D;58487;53.474;49.470;2023-03-08T09:16:31;1.87;118.99
70867;HTU21D;58487;53.474;49.470;2023-03-08T09:18:59;1.95;118.99
70867;HTU21D;58487;53.474;49.470;2023-03-08T09:21:26;2.16;118.99
70867;HTU21D;58487;53.474;49.470;2023-03-08T09:23:54;2.23;118.99
70867;HTU21D;58487;53.474;49.470;2023-03-08T09:26:20;2.23;118.99
70867;HTU21D;58487;53.474;49.470;2023-03-08T09:28:46;2.15;118.99
70867;HTU21D;58487;53.474;49.470;2023-03-08T09:31:14;2.15;118.99
70867;HTU21D;58487;53.474;49.470;2023-03-08T09:33:47;1.79;118.99
70867;HTU21D;58487;53.474;49.470;2023-03-08T09:36:13;1.33;118.99
70867;HTU21D;58487;53.474;49.470;2023-03-08T09:38:39;1.72;118.99
70867;HTU21D;58487;53.474;49.470;2023-03-08T09:49:19;2.23;118.99
70867;HTU21D;58487;53.474;49.470;2023-03-08T09:51:50;2.35;118.99
70867;HTU21D;58487;53.474;49.470;2023-03-08T09:54:20;2.32;118.99
70867;HTU21D;58487;53.474;49.470;2023-03-08T09:56:50;2.25;118.99
70867;HTU21D;58487;53.474;49.470;2023-03-08T09:59:56;2.19;118.99
70867;HTU21D;58487;53.474;49.470;2023-03-08T10:10:38;1.87;118.99
70867;HTU21D;58487;53.474;49.470;2023-03-08T10:13:28;2.00;118.99
70867;HTU21D;58487;53.474;49.470;2023-03-08T10:16:04;2.05;118.99
70867;HTU21D;58487;53.474;49.470;2023-03-08T10:18:50;1.94;118.99
70867;HTU21D;58487;53.474;49.470;2023-03-08T10:21:22;2.10;118.99
70867;HTU21D;58487;53.474;49.470;2023-03-08T10:23:59;2.01;118.99
70867;HTU21D;58487;53.474;49.470;2023-03-08T10:26:27;1.92;118.99
70867;HTU21D;58487;53.474;49.470;2023-03-08T10:28:53;1.53;118.99
70867;HTU21D;58487;53.474;49.470;2023-03-08T10:31:26;1.81;118.99
70867;HTU21D;58487;53.474;49.470;2023-03-08T10:34:21;1.83;118.99
70867;HTU21D;58487;53.474;49.470;2023-03-08T10:37:04;1.55;118.99
70867;HTU21D;58487;53.474;49.470;2023-03-08T10:39:31;1.45;118.99
70867;HTU21D;58487;53.474;49.470;2023-03-08T10:41:59;1.57;118.99
70867;HTU21D;58487;53.474;49.470;2023-03-08T10:47:03;1.10;118.99
70867;HTU21D;58487;53.474;49.470;2023-03-08T10:49:41;1.13;118.99
70867;HTU21D;58487;53.474;49.470;2023-03-08T10:52:24;0.99;118.99
70867;HTU21D;58487;53.474;49.470;2023-03-08T10:55:11;0.87;118.99
70867;HTU21D;58487;53.474;49.470;2023-03-08T10:57:40;1.24;118.99
70867;HTU21D;58487;53.474;49.470;2023-03-08T11:00:30;1.47;118.99
70867;HTU21D;58487;53.474;49.470;2023-03-08T11:05:35;1.24;118.99
70867;HTU21D;58487;53.474;49.470;2023-03-08T11:08:02;1.33;118.99
70867;HTU21D;58487;53.474;49.470;2023-03-08T11:10:29;1.23;118.99
70867;HTU21D;58487;53.474;49.470;2023-03-08T11:13:05;1.11;118.99
70867;HTU21D;58487;53.474;49.470;2023-03-08T11:15:34;1.32;118.99
70867;HTU21D;58487;53.474;49.470;2023-03-08T11:18:24;1.53;118.99
70867;HTU21D;58487;53.474;49.470;2023-03-08T11:21:01;1.53;118.99
70867;HTU21D;58487;53.474;49.470;2023-03-08T11:23:34;0.89;118.99
70867;HTU21D;58487;53.474;49.470;2023-03-08T11:28:48;1.65;118.99
70867;HTU21D;58487;53.474;49.470;2023-03-08T11:39:29;1.33;118.99
70867;HTU21D;58487;53.474;49.470;2023-03-08T11:45:19;1.66;118.99
70867;HTU21D;58487;53.474;49.470;2023-03-08T11:53:27;1.56;118.99
70867;HTU21D;58487;53.474;49.470;2023-03-08T11:56:07;1.51;118.99
70867;HTU21D;58487;53.474;49.470;2023-03-08T11:59:12;1.54;118.99
70867;HTU21D;58487;53.474;49.470;2023-03-08T12:01:48;1.61;118.99
70867;HTU21D;58487;53.474;49.470;2023-03-08T12:04:22;1.60;118.99
70867;HTU21D;58487;53.474;49.470;2023-03-08T12:06:50;1.72;118.99
70867;HTU21D;58487;53.474;49.470;2023-03-08T12:14:43;1.77;118.99
70867;HTU21D;58487;53.474;49.470;2023-03-08T12:19:46;1.63;118.99
70867;HTU21D;58487;53.474;49.470;2023-03-08T12:27:51;1.42;118.99
70867;HTU21D;58487;53.474;49.470;2023-03-08T12:33:11;1.33;118.99
70867;HTU21D;58487;53.474;49.470;2023-03-08T12:35:58;1.52;118.99
70867;HTU21D;58487;53.474;49.470;2023-03-08T12:40:56;1.43;118.99
70867;HTU21D;58487;53.474;49.470;2023-03-08T12:46:10;1.21;118.99
70867;HTU21D;58487;53.474;49.470;2023-03-08T13:01:44;0.42;118.99
70867;HTU21D;58487;53.474;49.470;2023-03-08T13:09:46;-0.03;118.99
70867;HTU21D;58487;53.474;49.470;2023-03-08T13:14:56;0.14;118.99
70867;HTU21D;58487;53.474;49.470;2023-03-08T13:20:20;0.23;118.99
70867;HTU21D;58487;53.474;49.470;2023-03-08T13:23:27;1.13;118.99
70867;HTU21D;58487;53.474;49.470;2023-03-08T13:28:42;0.92;118.99
70867;HTU21D;58487;53.474;49.470;2023-03-08T13:31:20;0.84;118.99
70867;HTU21D;58487;53.474;49.470;2023-03-08T13:33:52;1.61;118.99
70867;HTU21D;58487;53.474;49.470;2023-03-08T13:36:30;1.19;118.99
70867;HTU21D;58487;53.474;49.470;2023-03-08T13:39:05;1.11;118.99
70867;HTU21D;58487;53.474;49.470;2023-03-08T13:41:40;1.17;118.99
70867;HTU21D;58487;53.474;49.470;2023-03-08T13:44:23;1.43;118.99
70867;HTU21D;58487;53.474;49.470;2023-03-08T13:46:53;1.08;118.99
70867;HTU21D;58487;53.474;49.470;2023-03-08T13:49:33;0.82;118.99
70867;HTU21D;58487;53.474;49.470;2023-03-08T13:52:01;1.37;118.99
70867;HTU21D;58487;53.474;49.470;2023-03-08T13:54:34;0.90;118.99
70867;HTU21D;58487;53.474;49.470;2023-03-08T13:57:03;0.92;118.99
70867;HTU21D;58487;53.474;49.470;2023-03-08T13:59:31;1.02;118.99
70867;HTU21D;58487;53.474;49.470;2023-03-08T14:01:58;0.69;118.99
70867;HTU21D;58487;53.474;49.470;2023-03-08T14:04:27;1.05;118.99
70867;HTU21D;58487;53.474;49.470;2023-03-08T14:06:58;0.93;118.99
70867;HTU21D;58487;53.474;49.470;2023-03-08T14:09:25;0.77;118.99
70867;HTU21D;58487;53.474;49.470;2023-03-08T14:12:04;1.46;118.99
70867;HTU21D;58487;53.474;49.470;2023-03-08T14:14:36;1.46;118.99
70867;HTU21D;58487;53.474;49.470;2023-03-08T14:17:03;1.14;118.99
70867;HTU21D;58487;53.474;49.470;2023-03-08T14:19:32;1.61;118.99
70867;HTU21D;58487;53.474;49.470;2023-03-08T14:22:03;1.21;118.99
70867;HTU21D;58487;53.474;49.470;2023-03-08T14:24:34;1.20;118.99
70867;HTU21D;58487;53.474;49.470;2023-03-08T14:27:06;1.04;118.99
70867;HTU21D;58487;53.474;49.470;2023-03-08T14:30:19;0.90;118.99
70867;HTU21D;58487;53.474;49.470;2023-03-08T14:35:30;1.35;118.99
70867;HTU21D;58487;53.474;49.470;2023-03-08T14:37:57;1.01;118.99
70867;HTU21D;58487;53.474;49.470;2023-03-08T14:40:33;1.35;118.99
70867;HTU21D;58487;53.474;49.470;2023-03-08T14:43:05;1.13;118.99
70867;HTU21D;58487;53.474;49.470;2023-03-08T14:45:54;1.32;118.99
70867;HTU21D;58487;53.474;49.470;2023-03-08T14:48:28;1.21;118.99
70867;HTU21D;58487;53.474;49.470;2023-03-08T14:50:56;1.19;118.99
70867;HTU21D;58487;53.474;49.470;2023-03-08T14:53:36;0.86;118.99
70867;HTU21D;58487;53.474;49.470;2023-03-08T14:56:10;1.26;118.99
70867;HTU21D;58487;53.474;49.470;2023-03-08T14:58:40;1.33;118.99
70867;HTU21D;58487;53.474;49.470;2023-03-08T15:01:07;1.32;118.99
70867;HTU21D;58487;53.474;49.470;2023-03-08T15:03:34;1.55;118.99
70867;HTU21D;58487;53.474;49.470;2023-03-08T15:06:12;1.28;118.99
70867;HTU21D;58487;53.474;49.470;2023-03-08T15:08:41;1.24;118.99
70867;HTU21D;58487;53.474;49.470;2023-03-08T15:11:07;1.05;118.99
70867;HTU21D;58487;53.474;49.470;2023-03-08T15:13:33;1.45;118.99
70867;HTU21D;58487;53.474;49.470;2023-03-08T15:15:59;1.12;118.99
70867;HTU21D;58487;53.474;49.470;2023-03-08T15:18:26;1.43;118.99
70867;HTU21D;58487;53.474;49.470;2023-03-08T15:20:52;1.35;118.99
70867;HTU21D;58487;53.474;49.470;2023-03-08T15:23:25;1.50;118.99
70867;HTU21D;58487;53.474;49.470;2023-03-08T15:25:52;1.01;118.99
70867;HTU21D;58487;53.474;49.470;2023-03-08T15:28:20;0.74;118.99
70867;HTU21D;58487;53.474;49.470;2023-03-08T15:30:47;0.90;118.99
70867;HTU21D;58487;53.474;49.470;2023-03-08T15:33:14;1.48;118.99
70867;HTU21D;58487;53.474;49.470;2023-03-08T15:35:41;0.97;118.99
70867;HTU21D;58487;53.474;49.470;2023-03-08T15:38:13;0.59;118.99
70867;HTU21D;58487;53.474;49.470;2023-03-08T15:40:39;0.63;118.99
70867;HTU21D;58487;53.474;49.470;2023-03-08T15:43:07;1.09;118.99
70867;HTU21D;58487;53.474;49.470;2023-03-08T15:45:33;1.07;118.99
70867;HTU21D;58487;53.474;49.470;2023-03-08T15:48:11;1.16;118.99
70867;HTU21D;58487;53.474;49.470;2023-03-08T15:50:37;0.88;118.99
70867;HTU21D;58487;53.474;49.470;2023-03-08T15:53:04;1.26;118.99
70867;HTU21D;58487;53.474;49.470;2023-03-08T15:55:31;1.12;118.99
70867;HTU21D;58487;53.474;49.470;2023-03-08T15:57:57;0.35;118.99
70867;HTU21D;58487;53.474;49.470;2023-03-08T16:00:24;0.99;118.99
70867;HTU21D;58487;53.474;49.470;2023-03-08T16:02:50;0.96;118.99
70867;HTU21D;58487;53.474;49.470;2023-03-08T16:05:18;1.17;118.99
70867;HTU21D;58487;53.474;49.470;2023-03-08T16:07:52;0.68;118.99
70867;HTU21D;58487;53.474;49.470;2023-03-08T16:10:18;1.22;118.99
70867;HTU21D;58487;53.474;49.470;2023-03-08T16:12:44;1.13;118.99
70867;HTU21D;58487;53.474;49.470;2023-03-08T16:15:10;1.09;118.99
70867;HTU21D;58487;53.474;49.470;2023-03-08T16:17:39;0.90;118.99
70867;HTU21D;58487;53.474;49.470;2023-03-08T16:20:05;0.86;118.99
70867;HTU21D;58487;53.474;49.470;2023-03-08T16:22:32;0.71;118.99
70867;HTU21D;58487;53.474;49.470;2023-03-08T16:24:59;0.53;118.99
70867;HTU21D;58487;53.474;49.470;2023-03-08T16:27:25;0.67;118.99
70867;HTU21D;58487;53.474;49.470;2023-03-08T16:29:51;0.53;118.99
70867;HTU21D;58487;53.474;49.470;2023-03-08T16:32:18;0.73;118.99
70867;HTU21D;58487;53.474;49.470;2023-03-08T16:34:45;0.43;118.99
70867;HTU21D;58487;53.474;49.470;2023-03-08T16:37:20;0.68;118.99
70867;HTU21D;58487;53.474;49.470;2023-03-08T16:39:50;0.67;118.99
70867;HTU21D;58487;53.474;49.470;2023-03-08T16:42:16;-0.30;118.99
70867;HTU21D;58487;53.474;49.470;2023-03-08T16:44:49;0.29;118.99